Avoca, Arkansas
Current Conditions -  °F | °C
As of 12:57 PM on Monday 20 Oct 2014 (Local Time) from KROG Reporting Station
Overcast Overcast  
Wind Chill: 67°   Ceiling: 2500
Heat Index: 67°   Visibility: 10mi
Dew Point: 57°   Wind: 7mph
Humidity: 70%   Direction: 250°WSW
Pressure: 30.09"   Gusts: NA
Location:  36.4°N, 94.07°W
Report Text: KROG 201757Z 25006KT 10SM OVC025 19/14 A3009 RMK AO2 SLP181 60000 T01940139 10194 20122 58009
Loading
Personal Weather Stations






























Interactive Weather Map
Tropical Storm Tracking
New forecast layout! Learn more

10-Day Weather Forecast

Advertisements
Track Severe Weather on mobile